Latest Weather Observations for Charlton

IDV60801

Issued at 5:35 pm EST Thursday 18 September 2014 (issued every 30 minutes, with the page automatically refreshed every 10 minutes)

About weather observations | Map of weather stations | Latest weather observations for VIC | Other Formats
Station Details ID: 080128 Name: CHARLTON Lat: -36.28 Lon: 143.33 Height: 131.7 m
Data from the previous 72 hours. | See also: Recent months at Charlton
Date/Time
EST
Temp
°C
App
Temp
°C
Dew
Point
Rel
Hum
%
Delta-T
°C
Wind Press
QNH
hPa
Press
MSL
hPa
Rain
since 9 am
mm
Dir
 
Spd
km/h
Gust
km/h
Spd
kts
Gust
kts
18/05:30pm 13.2 9.3 3.6 52 4.3 SW 13 20 7 11 1023.3 1023.4 0.0
18/05:00pm 14.3 10.2 2.5 45 5.2 SSW 13 20 7 11 1022.9 1023.0 0.0
18/04:30pm 14.7 10.2 1.9 42 5.7 SSW 15 22 8 12 1022.7 1022.8 0.0
18/04:00pm 15.4 11.9 1.5 39 6.1 SSW 9 17 5 9 1022.5 1022.6 0.0
18/03:30pm 14.3 10.2 2.5 45 5.3 SSW 13 22 7 12 1022.6 1022.7 0.0
18/03:00pm 15.3 11.1 1.8 40 6.0 SSW 13 20 7 11 1022.7 1022.8 0.0
18/02:30pm 14.7 10.0 3.2 46 5.2 SW 17 26 9 14 1022.8 1022.9 0.0
18/02:00pm 14.9 10.8 2.4 43 5.6 WSW 13 20 7 11 1022.9 1023.0 0.0
18/01:30pm 14.6 11.0 3.1 46 5.2 SW 11 20 6 11 1023.2 1023.3 0.0
18/01:00pm 14.1 10.9 3.3 48 4.9 SSW 9 19 5 10 1023.4 1023.5 0.0
18/12:30pm 14.1 10.0 2.0 44 5.3 SW 13 20 7 11 1023.8 1023.9 0.0
18/12:00pm 14.5 10.1 2.7 45 5.3 SSW 15 22 8 12 1023.9 1024.0 0.0
18/11:30am 15.3 11.1 3.8 46 5.3 S 15 24 8 13 1024.0 1024.1 0.0
18/11:00am 13.5 9.3 3.6 51 4.5 SSW 15 24 8 13 1024.2 1024.3 0.0
18/10:30am 13.1 9.3 4.0 54 4.2 SW 13 20 7 11 1024.4 1024.5 0.0
18/10:00am 11.8 7.7 4.3 60 3.4 SSW 15 22 8 12 1024.6 1024.7 0.0
18/09:30am 11.4 7.6 3.7 59 3.4 SW 13 22 7 12 1024.6 1024.7 0.0
18/09:00am 10.0 6.6 4.0 66 2.6 SW 11 15 6 8 1024.7 1024.8 0.0
18/08:30am 8.7 6.1 4.1 73 2.0 W 7 13 4 7 1024.2 1024.3 0.0
18/08:00am 6.5 4.0 3.8 83 1.1 W 6 11 3 6 1024.1 1024.2 0.0
18/07:30am 4.4 1.7 2.9 90 0.6 SW 6 7 3 4 1023.9 1024.0 0.0
18/07:00am 3.6 1.7 2.6 93 0.4 SW 2 6 1 3 1023.6 1023.7 0.0
18/06:30am 2.7 1.0 2.0 95 0.3 CALM 0 2 0 1 1023.3 1023.4 0.0
18/06:00am 2.3 -0.6 1.6 95 0.3 S 6 7 3 4 1023.2 1023.3 0.0
18/05:30am 2.3 0.6 1.9 97 0.2 CALM 0 0 0 0 1023.0 1023.1 0.0
18/05:00am 1.7 -0.9 1.1 96 0.2 SSW 4 9 2 5 1022.7 1022.8 0.0
18/04:30am 2.1 -0.9 1.8 98 0.1 WNW 7 9 4 5 1022.4 1022.5 0.0
18/04:00am 1.4 -1.2 0.8 96 0.2 NW 4 6 2 3 1022.1 1022.2 0.0
18/03:30am 1.3 -1.0 0.4 94 0.3 NW 2 6 1 3 1022.0 1022.1 0.0
18/03:00am 1.6 -1.4 0.6 93 0.4 NW 6 7 3 4 1021.9 1022.0 0.0
18/02:30am 1.7 -0.3 0.2 90 0.6 CALM 0 0 0 0 1021.9 1022.0 0.0
18/02:00am 3.0 0.5 1.8 92 0.5 SW 4 7 2 4 1021.9 1022.0 0.0
18/01:30am 3.0 0.9 1.5 90 0.6 S 2 6 1 3 1022.0 1022.1 0.0
18/01:00am 3.7 1.3 2.1 89 0.6 WSW 4 7 2 4 1022.0 1022.1 0.0
18/12:30am 3.7 0.9 1.9 88 0.7 SW 6 7 3 4 1021.9 1022.0 0.0
18/12:00am 4.5 1.6 2.4 86 0.8 WSW 7 11 4 6 1022.0 1022.1 0.0
 
Date/Time
EST
Temp
°C
App
Temp
°C
Dew
Point
Rel
Hum
%
Delta-T
°C
Wind Press
QNH
hPa
Press
MSL
hPa
Rain
since 9 am
mm
Dir
 
Spd
km/h
Gust
km/h
Spd
kts
Gust
kts
17/11:30pm 5.4 2.6 2.9 84 1.0 SW 7 13 4 7 1022.0 1022.1 0.0
17/11:00pm 5.1 2.4 2.8 85 0.9 SW 6 7 3 4 1021.8 1021.9 0.0
17/10:30pm 6.1 3.3 3.3 82 1.2 SW 7 13 4 7 1021.8 1021.9 0.0
17/10:00pm 6.7 3.5 3.3 79 1.4 SW 9 17 5 9 1021.5 1021.6 0.0
17/09:30pm 7.1 4.4 3.5 78 1.5 WSW 7 11 4 6 1021.2 1021.2 0.0
17/09:00pm 8.0 4.9 3.5 73 1.9 SW 9 17 5 9 1020.6 1020.6 0.0
17/08:30pm 8.8 5.7 3.6 70 2.3 SW 9 15 5 8 1020.6 1020.6 0.0
17/08:00pm 9.7 6.3 3.9 67 2.6 SSW 11 19 6 10 1020.3 1020.3 0.0
17/07:30pm 10.2 6.7 3.3 62 3.0 SW 11 20 6 11 1019.9 1019.9 0.0
17/07:00pm 11.2 7.3 3.3 58 3.5 SW 13 20 7 11 1019.2 1019.2 0.0
17/06:30pm 12.1 7.3 2.8 53 4.1 SW 17 28 9 15 1018.8 1018.8 0.0
17/06:00pm 13.6 8.1 1.6 44 5.2 WSW 20 35 11 19 1018.4 1018.4 0.0
17/05:30pm 14.1 8.4 0.4 39 5.8 SW 20 35 11 19 1017.9 1018.0 0.0
17/05:00pm 15.1 9.2 -0.6 34 6.6 SW 20 37 11 20 1017.5 1017.6 0.0
17/04:30pm 15.7 9.8 -0.9 32 7.0 SW 20 39 11 21 1017.1 1017.2 0.0
17/04:00pm 16.1 9.8 -1.0 31 7.2 WSW 22 37 12 20 1016.9 1017.0 0.0
17/03:30pm 16.6 10.4 -0.1 32 7.2 WSW 22 39 12 21 1016.6 1016.7 0.0
17/03:00pm 16.9 10.4 0.1 32 7.3 WSW 24 41 13 22 1016.3 1016.4 0.0
17/02:30pm 16.4 10.3 0.1 33 7.0 SW 22 41 12 22 1016.5 1016.6 0.0
17/02:00pm 15.1 8.5 -0.6 34 6.6 SW 24 41 13 22 1016.6 1016.7 0.0
17/01:37pm 16.4 9.2 0.9 35 6.8 WSW 28 48 15 26 1016.4 1016.5 0.0
17/01:30pm 16.6 9.8 1.1 35 6.8 WSW 26 41 14 22 1016.5 1016.6 0.0
17/01:09pm 16.0 8.9 1.3 37 6.5 WSW 28 48 15 26 1016.5 1016.6 0.0
17/01:00pm 16.3 10.5 4.4 45 5.6 WSW 24 43 13 23 1016.6 1016.7 0.0
17/12:52pm 14.7 8.0 3.5 47 5.1 WSW 28 46 15 25 1016.6 1016.7 0.0
17/12:30pm 14.7 9.1 3.5 47 5.1 SW 22 37 12 20 1016.6 1016.7 0.0
17/12:00pm 15.0 9.9 4.1 48 5.1 WSW 20 33 11 18 1016.7 1016.8 0.0
17/11:30am 14.9 8.3 4.3 49 4.9 WSW 28 44 15 24 1016.9 1017.0 0.0
17/11:00am 15.0 10.3 5.2 52 4.6 SW 19 32 10 17 1017.0 1017.1 0.0
17/10:30am 14.7 9.9 4.4 50 4.8 WSW 19 35 10 19 1017.0 1017.1 0.0
17/10:00am 14.1 10.0 6.2 59 3.8 WSW 17 26 9 14 1016.9 1017.0 0.0
17/09:30am 12.1 7.7 6.6 69 2.6 WSW 19 32 10 17 1016.8 1016.9 0.0
17/09:00am 11.2 6.9 7.1 76 2.0 WSW 19 30 10 16 1016.8 1016.9 0.0
17/08:30am 10.1 6.3 7.5 84 1.3 W 17 24 9 13 1016.6 1016.7 -
17/08:00am 9.0 6.1 8.1 94 0.4 W 13 22 7 12 1016.5 1016.6 -
17/07:30am 7.9 4.9 7.8 99 0.0 W 13 17 7 9 1016.2 1016.3 -
17/07:00am 6.9 4.1 6.8 99 0.0 W 11 15 6 8 1016.0 1016.1 -
17/06:30am 6.6 3.7 6.5 99 0.0 W 11 17 6 9 1015.6 1015.7 -
17/06:00am 6.8 4.3 6.7 99 0.0 W 9 15 5 8 1015.5 1015.6 -
17/05:30am 7.4 5.0 7.0 97 0.2 W 9 15 5 8 1015.2 1015.3 -
17/05:00am 8.0 4.9 7.4 96 0.3 W 13 20 7 11 1015.0 1015.1 -
17/04:30am 8.1 5.4 7.2 94 0.4 W 11 19 6 10 1014.9 1015.0 -
17/04:00am 8.3 5.9 7.2 93 0.5 WSW 9 15 5 8 1014.7 1014.7 -
17/03:30am 8.7 5.6 7.3 91 0.7 W 13 24 7 13 1014.7 1014.7 -
17/03:00am 9.0 6.0 7.5 90 0.7 W 13 20 7 11 1014.9 1015.0 0.0
17/02:30am 8.8 5.8 6.1 83 1.2 W 11 17 6 9 1014.9 1015.0 -
17/02:00am 9.5 6.1 6.0 79 1.6 W 13 17 7 9 1014.6 1014.6 -
17/01:30am 9.9 6.5 6.1 77 1.8 W 13 20 7 11 1014.7 1014.7 -
17/01:00am 9.7 6.7 6.2 79 1.6 W 11 20 6 11 1014.9 1015.0 -
17/12:30am 8.8 5.7 5.7 81 1.4 W 11 15 6 8 1014.8 1014.8 -
17/12:00am 9.1 6.5 6.0 81 1.4 W 9 15 5 8 1014.7 1014.7 -
 
Date/Time
EST
Temp
°C
App
Temp
°C
Dew
Point
Rel
Hum
%
Delta-T
°C
Wind Press
QNH
hPa
Press
MSL
hPa
Rain
since 9 am
mm
Dir
 
Spd
km/h
Gust
km/h
Spd
kts
Gust
kts
16/11:30pm 7.8 5.4 5.4 85 1.1 WNW 7 9 4 5 1014.7 1014.7 -
16/11:00pm 8.9 6.8 6.0 82 1.3 W 6 7 3 4 1014.8 1014.8 -
16/10:30pm 9.6 7.5 6.0 78 1.7 SW 6 9 3 5 1014.7 1014.7 -
16/10:00pm 10.5 8.3 6.1 74 2.1 SW 7 9 4 5 1014.8 1014.8 -
16/09:30pm 11.5 8.9 6.2 70 2.5 SW 9 13 5 7 1014.7 1014.7 -
16/09:00pm 12.7 9.8 6.5 66 3.0 SW 11 17 6 9 1014.7 1014.7 -
16/08:30pm 13.3 10.4 6.6 64 3.2 SW 11 17 6 9 1014.3 1014.3 -
16/08:00pm 13.6 10.3 6.5 62 3.4 SW 13 20 7 11 1013.9 1013.9 -
16/07:30pm 12.9 9.6 4.8 58 3.8 SW 11 19 6 10 1013.7 1013.7 -
16/07:00pm 13.1 9.9 3.2 51 4.4 SW 9 13 5 7 1013.1 1013.1 -
16/06:30pm 14.2 11.0 2.8 46 5.1 SW 9 15 5 8 1012.9 1012.9 -
16/06:00pm 15.5 11.9 2.7 42 5.8 SW 11 22 6 12 1012.7 1012.7 -
16/05:30pm 17.0 12.3 3.0 39 6.5 SW 17 30 9 16 1012.4 1012.4 -
16/05:00pm 18.2 12.6 3.3 37 7.0 WSW 22 35 12 19 1012.3 1012.3 -
16/04:30pm 16.8 - 3.1 40 6.3 - - - - - 1012.0 - -
16/10:30am 15.4 10.8 8.2 62 3.6 SW 22 33 12 18 1011.9 1011.9 0.0
16/10:00am 15.3 11.3 8.3 63 3.6 SSW 19 28 10 15 1011.8 1011.8 0.0
16/09:30am 14.2 10.2 8.4 68 2.9 SSW 19 32 10 17 1011.7 1011.7 0.0
16/09:00am 13.8 8.9 8.6 71 2.6 SW 24 39 13 21 1011.7 1011.7 0.0
16/08:30am 13.5 9.7 9.0 74 2.3 SW 19 35 10 19 1011.5 1011.5 0.0
16/08:00am 13.2 9.2 8.9 75 2.2 SW 20 33 11 18 1011.0 1011.0 0.0
16/07:30am 13.0 9.1 9.3 78 1.9 SW 20 39 11 21 1010.6 1010.6 0.0
16/07:00am 12.5 9.5 9.3 81 1.6 WSW 15 30 8 16 1009.9 1010.0 0.0
16/06:30am 12.5 8.9 9.7 83 1.4 SW 19 28 10 15 1009.3 1009.4 0.0
16/06:00am 11.4 8.8 9.3 87 1.1 SW 13 22 7 12 1008.8 1008.9 0.0
16/05:30am 11.1 7.7 9.0 87 1.1 WSW 17 26 9 14 1008.6 1008.7 0.0
16/05:00am 11.3 7.5 9.2 87 1.1 SW 19 28 10 15 1008.1 1008.1 0.0
16/04:30am 11.3 8.0 9.4 88 1.0 SW 17 30 9 16 1007.8 1007.8 0.0
16/04:00am 11.0 8.5 9.6 91 0.7 SW 13 24 7 13 1007.6 1007.6 0.0
16/03:30am 10.4 7.9 9.8 96 0.3 SW 13 20 7 11 1007.4 1007.4 0.0
16/03:00am 9.3 6.8 8.4 94 0.4 WSW 11 19 6 10 1007.2 1007.2 0.0
16/02:30am 10.1 7.2 8.0 87 1.0 WSW 13 20 7 11 1007.3 1007.3 0.0
16/02:00am 10.6 7.6 7.5 81 1.5 W 13 17 7 9 1007.3 1007.3 0.0
16/01:30am 10.6 8.0 6.2 74 2.1 NW 9 15 5 8 1007.3 1007.3 0.0
16/01:00am 10.9 8.7 6.3 73 2.2 NNW 7 13 4 7 1007.5 1007.5 0.0
16/12:30am 10.2 8.5 6.0 75 2.0 SSE 4 7 2 4 1007.6 1007.6 0.0
16/12:00am 10.7 9.0 6.1 73 2.2 WSW 4 7 2 4 1007.7 1007.7 0.0
 
Date/Time
EST
Temp
°C
App
Temp
°C
Dew
Point
Rel
Hum
%
Delta-T
°C
Wind Press
QNH
hPa
Press
MSL
hPa
Rain
since 9 am
mm
Dir
 
Spd
km/h
Gust
km/h
Spd
kts
Gust
kts
15/11:30pm 11.0 9.2 5.5 69 2.5 SW 4 7 2 4 1007.9 1007.9 0.0
15/11:00pm 11.6 9.3 5.9 68 2.7 W 7 9 4 5 1008.0 1008.0 0.0
15/10:30pm 11.9 9.8 5.8 66 2.9 WSW 6 9 3 5 1008.2 1008.2 0.0
15/10:00pm 12.4 10.1 5.6 63 3.2 SW 7 9 4 5 1008.0 1008.0 0.0
15/09:30pm 13.3 10.6 5.5 59 3.7 WSW 9 13 5 7 1007.9 1007.9 0.0
15/09:00pm 13.6 11.2 5.3 57 3.9 WSW 7 11 4 6 1008.2 1008.2 0.0
15/08:30pm 14.0 11.7 4.9 54 4.3 WSW 6 9 3 5 1008.3 1008.3 0.0
15/08:00pm 15.1 12.6 5.0 51 4.8 WSW 7 11 4 6 1008.3 1008.3 0.0
15/07:30pm 16.1 13.8 4.8 47 5.4 WSW 6 9 3 5 1008.1 1008.1 0.0
15/07:00pm 17.6 14.4 4.9 43 6.1 WNW 11 19 6 10 1007.8 1007.8 0.0
15/06:30pm 18.6 15.3 4.4 39 6.8 WNW 11 15 6 8 1007.6 1007.6 0.0
15/06:00pm 19.3 15.7 5.0 39 7.0 WNW 13 20 7 11 1007.3 1007.3 0.0

Other Formats:

Comma delimited format used in spreadsheet applications
http://www.bom.gov.au/fwo/IDV60801/IDV60801.94839.axf

JavaScript Object Notation format (JSON) in row-major order
http://www.bom.gov.au/fwo/IDV60801/IDV60801.94839.json